Time;durP1;ratioP1;P1;durP2;ratioP2;P2;SDS_P1;SDS_P2;PMS_P1;PMS_P2;Temp;Humidity;BMP_temperature;BMP_pressure;BME280_temperature;BME280_humidity;BME280_pressure;Samples;Min_cycle;Max_cycle;Signal;HPM_P1;HPM_P2
2022/10/30 00:00:39;;;;;;;17.45;7.13;;;16.40;99.90;;;;;;5107831;28;20062;-61
2022/10/30 00:03:05;;;;;;;17.60;8.20;;;16.40;99.90;;;;;;5104178;28;20028;-62
2022/10/30 00:05:30;;;;;;;13.98;7.18;;;16.40;99.90;;;;;;5090576;28;20501;-61
2022/10/30 00:07:57;;;;;;;17.38;6.05;;;16.40;99.90;;;;;;5097891;28;20122;-61
2022/10/30 00:10:24;;;;;;;15.38;6.35;;;16.30;99.90;;;;;;5101657;28;20134;-61
2022/10/30 00:12:49;;;;;;;15.88;7.65;;;16.40;99.90;;;;;;5081937;28;20040;-62
2022/10/30 00:15:15;;;;;;;18.15;7.35;;;16.40;99.90;;;;;;5108371;28;20092;-62
2022/10/30 00:17:41;;;;;;;15.88;7.18;;;16.30;99.90;;;;;;5087762;28;20554;-62
2022/10/30 00:20:08;;;;;;;21.13;7.53;;;16.30;99.90;;;;;;5101450;28;20055;-62
2022/10/30 00:22:36;;;;;;;21.17;7.35;;;16.30;99.90;;;;;;5097858;28;20412;-62
2022/10/30 00:25:03;;;;;;;12.27;6.93;;;16.30;99.90;;;;;;5094368;28;20044;-62
2022/10/30 00:27:29;;;;;;;15.10;6.85;;;16.30;99.90;;;;;;5095675;28;20039;-61
2022/10/30 00:29:54;;;;;;;16.35;7.18;;;16.30;99.90;;;;;;5095954;28;20040;-61
2022/10/30 00:32:20;;;;;;;18.45;7.47;;;16.20;99.90;;;;;;5089450;28;20040;-61
2022/10/30 00:34:45;;;;;;;16.85;7.32;;;16.20;99.90;;;;;;5089897;28;20039;-61
2022/10/30 00:37:11;;;;;;;18.42;8.35;;;16.20;99.90;;;;;;5104731;28;20180;-60
2022/10/30 00:39:36;;;;;;;21.63;7.53;;;16.20;99.90;;;;;;5096748;28;20067;-61
2022/10/30 00:42:02;;;;;;;18.73;6.88;;;16.10;99.90;;;;;;5112085;28;20054;-61
2022/10/30 00:44:37;;;;;;;14.00;7.28;;;16.10;99.90;;;;;;5108837;28;20024;-61
2022/10/30 00:47:10;;;;;;;22.05;8.15;;;16.10;99.90;;;;;;5081872;28;20067;-61
2022/10/30 00:49:43;;;;;;;18.75;8.98;;;16.10;99.90;;;;;;5089468;28;20371;-61
2022/10/30 00:52:09;;;;;;;17.42;7.18;;;16.00;99.90;;;;;;5085550;28;20409;-61
2022/10/30 00:54:35;;;;;;;20.15;7.32;;;16.00;99.90;;;;;;5080439;28;20036;-61
2022/10/30 00:57:05;;;;;;;16.00;7.57;;;16.00;99.90;;;;;;5105346;28;20032;-61
2022/10/30 00:59:33;;;;;;;18.23;7.28;;;16.00;99.90;;;;;;5089636;28;20036;-61
2022/10/30 01:02:01;;;;;;;18.65;6.95;;;16.00;99.90;;;;;;5084507;28;20040;-61
2022/10/30 01:04:30;;;;;;;18.73;7.32;;;16.00;99.90;;;;;;5096893;28;20424;-62
2022/10/30 01:06:57;;;;;;;21.83;7.90;;;15.90;99.90;;;;;;5095390;28;20401;-61
2022/10/30 01:09:23;;;;;;;14.10;6.53;;;15.90;99.90;;;;;;5087198;28;20040;-61
2022/10/30 01:11:48;;;;;;;17.88;6.97;;;15.90;99.90;;;;;;5092514;28;20052;-61
2022/10/30 01:14:17;;;;;;;21.35;7.65;;;15.90;99.90;;;;;;5090366;28;20442;-61
2022/10/30 01:17:09;;;;;;;15.43;7.43;;;15.90;99.90;;;;;;5101938;28;20442;-61
2022/10/30 01:19:41;;;;;;;18.67;7.70;;;15.90;99.90;;;;;;5106590;28;20036;-61
2022/10/30 01:22:15;;;;;;;16.55;7.93;;;15.80;99.90;;;;;;5088845;28;20043;-61
2022/10/30 01:25:13;;;;;;;19.73;8.35;;;15.80;99.90;;;;;;5106226;28;20508;-61
2022/10/30 01:27:48;;;;;;;19.33;8.98;;;15.80;99.90;;;;;;5093233;28;20121;-61
2022/10/30 01:30:34;;;;;;;17.30;7.15;;;15.80;99.90;;;;;;5089915;28;20127;-61
2022/10/30 01:33:28;;;;;;;19.48;7.47;;;15.80;99.90;;;;;;5079518;28;20032;-61
2022/10/30 01:36:13;;;;;;;18.48;6.93;;;15.80;99.90;;;;;;5091751;28;20044;-61
2022/10/30 01:38:43;;;;;;;15.20;6.85;;;15.80;99.90;;;;;;5092581;28;20085;-61
2022/10/30 01:41:08;;;;;;;15.45;6.90;;;15.80;99.90;;;;;;5087205;28;20033;-61
2022/10/30 01:43:36;;;;;;;20.15;8.50;;;15.80;99.90;;;;;;5071792;28;20044;-61
2022/10/30 01:46:29;;;;;;;13.88;7.35;;;15.80;99.90;;;;;;5087193;28;20119;-59
2022/10/30 01:49:03;;;;;;;21.48;7.40;;;15.80;99.90;;;;;;5092124;28;20032;-61
2022/10/30 01:52:07;;;;;;;18.65;6.68;;;15.70;99.90;;;;;;5091705;28;20445;-61
2022/10/30 01:54:44;;;;;;;14.45;8.20;;;15.70;99.90;;;;;;5091716;28;20067;-61
2022/10/30 01:57:38;;;;;;;21.00;8.40;;;15.70;99.90;;;;;;5079422;28;20390;-61
2022/10/30 02:00:07;;;;;;;17.13;8.20;;;15.70;99.90;;;;;;5090529;28;20614;-60
2022/10/30 02:02:32;;;;;;;17.38;7.72;;;15.70;99.90;;;;;;5088256;28;20041;-61
2022/10/30 02:04:59;;;;;;;17.98;7.68;;;15.70;99.90;;;;;;5107270;28;20080;-61
2022/10/30 02:07:24;;;;;;;19.05;7.53;;;15.70;99.90;;;;;;5094462;28;20043;-61
2022/10/30 02:09:52;;;;;;;21.20;7.55;;;15.70;99.90;;;;;;5095638;28;20043;-61
2022/10/30 02:12:18;;;;;;;17.70;7.53;;;15.70;99.90;;;;;;5090370;28;20079;-61
2022/10/30 02:14:49;;;;;;;14.65;7.07;;;15.60;99.90;;;;;;5101748;28;20043;-61
2022/10/30 02:17:15;;;;;;;20.33;7.57;;;15.60;99.90;;;;;;5104604;28;20396;-61
2022/10/30 02:19:41;;;;;;;18.75;8.95;;;15.60;99.90;;;;;;5102291;28;20169;-61
2022/10/30 02:22:07;;;;;;;16.63;8.45;;;15.60;99.90;;;;;;5095384;28;20035;-60
2022/10/30 02:24:33;;;;;;;23.52;7.68;;;15.50;99.90;;;;;;5103758;28;20036;-61
2022/10/30 02:26:58;;;;;;;24.63;8.43;;;15.50;99.90;;;;;;5109543;28;20043;-61
2022/10/30 02:29:24;;;;;;;16.10;7.38;;;15.50;99.90;;;;;;5092811;28;20032;-61
2022/10/30 02:31:50;;;;;;;19.00;7.05;;;15.50;99.90;;;;;;5108003;28;20084;-61
2022/10/30 02:34:15;;;;;;;19.35;7.20;;;15.50;99.90;;;;;;5092993;28;20144;-61
2022/10/30 02:36:41;;;;;;;17.50;8.00;;;15.50;99.90;;;;;;5103919;28;20048;-61
2022/10/30 02:39:07;;;;;;;19.00;7.05;;;15.50;99.90;;;;;;5098653;28;20058;-61
2022/10/30 02:41:32;;;;;;;19.85;7.00;;;15.50;99.90;;;;;;5092474;28;20047;-61
2022/10/30 02:43:58;;;;;;;20.33;8.27;;;15.50;99.90;;;;;;5104868;28;20035;-61
2022/10/30 02:46:23;;;;;;;18.25;7.32;;;15.50;99.90;;;;;;5091198;28;20111;-61
2022/10/30 02:48:49;;;;;;;17.70;8.00;;;15.50;99.90;;;;;;5107329;28;20100;-61
2022/10/30 02:51:15;;;;;;;15.85;7.18;;;15.50;99.90;;;;;;5088088;28;20084;-61
2022/10/30 02:53:41;;;;;;;20.30;7.10;;;15.40;99.90;;;;;;5092046;28;20049;-62
2022/10/30 02:56:09;;;;;;;19.30;7.65;;;15.40;99.90;;;;;;5089463;28;20141;-62
2022/10/30 02:58:34;;;;;;;15.23;7.50;;;15.40;99.90;;;;;;5090531;28;20040;-62
2022/10/30 03:01:14;;;;;;;18.52;8.20;;;15.30;99.90;;;;;;5105929;28;20047;-62
2022/10/30 03:03:40;;;;;;;19.38;6.93;;;15.30;99.90;;;;;;5083653;28;20035;-62
2022/10/30 03:06:08;;;;;;;11.57;7.07;;;15.30;99.90;;;;;;5098970;28;20051;-61
2022/10/30 03:08:34;;;;;;;18.85;8.40;;;15.30;99.90;;;;;;5106746;28;20044;-60
2022/10/30 03:11:01;;;;;;;;;;;15.30;99.90;;;;;;5097664;28;20379;-61
2022/10/30 03:13:28;;;;;;;18.60;7.20;;;15.20;99.90;;;;;;5105013;28;19919;-61
2022/10/30 03:15:59;;;;;;;18.05;7.88;;;15.20;99.90;;;;;;5093448;28;20495;-61
2022/10/30 03:18:25;;;;;;;21.48;7.15;;;15.20;99.90;;;;;;5104536;28;20413;-61
2022/10/30 03:20:55;;;;;;;14.98;7.95;;;15.20;99.90;;;;;;5090902;28;20162;-61
2022/10/30 03:23:20;;;;;;;18.55;7.97;;;15.10;99.90;;;;;;5097444;28;20523;-61
2022/10/30 03:25:46;;;;;;;21.47;8.83;;;15.10;99.90;;;;;;5092118;28;20043;-61
2022/10/30 03:28:11;;;;;;;20.13;8.10;;;15.10;99.90;;;;;;5088547;28;20278;-60
2022/10/30 03:30:37;;;;;;;17.63;9.23;;;15.00;99.90;;;;;;5090216;28;20277;-60
2022/10/30 03:33:02;;;;;;;16.43;8.17;;;15.00;99.90;;;;;;5093017;28;20042;-61
2022/10/30 03:35:28;;;;;;;20.02;8.25;;;15.00;99.90;;;;;;5097452;28;20796;-61
2022/10/30 03:37:53;;;;;;;21.13;7.90;;;14.90;99.90;;;;;;5082955;28;20041;-61
2022/10/30 03:40:19;;;;;;;20.27;8.40;;;14.80;99.90;;;;;;5071939;28;20052;-60
2022/10/30 03:42:44;;;;;;;19.17;8.63;;;14.80;99.90;;;;;;5076217;28;20283;-61
2022/10/30 03:45:10;;;;;;;13.40;7.55;;;14.80;99.90;;;;;;5068954;28;20032;-61
2022/10/30 03:47:39;;;;;;;17.00;8.10;;;14.80;99.90;;;;;;5073360;28;20032;-61
2022/10/30 03:50:05;;;;;;;20.00;8.63;;;14.80;99.90;;;;;;5090197;28;20300;-61
2022/10/30 03:52:30;;;;;;;15.93;8.10;;;14.80;99.90;;;;;;5088534;28;20040;-61
2022/10/30 03:54:56;;;;;;;15.20;9.33;;;14.80;99.90;;;;;;5090203;28;20044;-60
2022/10/30 03:57:21;;;;;;;16.87;7.03;;;14.80;99.90;;;;;;5090259;28;20274;-61
2022/10/30 03:59:47;;;;;;;20.17;9.03;;;14.80;99.90;;;;;;5087943;28;20801;-61
2022/10/30 04:02:12;;;;;;;17.37;8.77;;;14.80;99.90;;;;;;5099133;28;20278;-61
2022/10/30 04:04:38;;;;;;;15.20;8.97;;;14.80;99.90;;;;;;5099226;28;20278;-61
2022/10/30 04:07:03;;;;;;;17.30;8.33;;;14.80;99.90;;;;;;5100842;28;20274;-61
2022/10/30 04:09:29;;;;;;;16.02;8.43;;;14.80;99.90;;;;;;5088236;28;20279;-60
2022/10/30 04:11:54;;;;;;;19.88;9.38;;;14.80;99.90;;;;;;5077767;28;20118;-61
2022/10/30 04:14:20;;;;;;;18.98;9.43;;;14.70;99.90;;;;;;5112573;28;20044;-61
2022/10/30 04:16:45;;;;;;;29.98;9.05;;;14.70;99.90;;;;;;5112637;28;20194;-61
2022/10/30 04:19:11;;;;;;;16.80;8.27;;;14.70;99.90;;;;;;5087960;28;20119;-59
2022/10/30 04:21:37;;;;;;;21.63;9.13;;;14.70;99.90;;;;;;5077815;28;20040;-61
2022/10/30 04:24:03;;;;;;;23.35;9.45;;;14.70;99.90;;;;;;5086055;28;20266;-61
2022/10/30 04:26:28;;;;;;;18.33;9.10;;;14.70;99.90;;;;;;5094800;28;20040;-61
2022/10/30 04:28:54;;;;;;;15.75;8.35;;;14.60;99.90;;;;;;5103522;28;20499;-61
2022/10/30 04:31:19;;;;;;;14.43;8.77;;;14.60;99.90;;;;;;5106192;28;20403;-61
2022/10/30 04:33:45;;;;;;;14.90;9.43;;;14.60;99.90;;;;;;5103103;28;20285;-61
2022/10/30 04:36:10;;;;;;;16.27;9.13;;;14.60;99.90;;;;;;5114011;28;20273;-61
2022/10/30 04:38:36;;;;;;;21.47;9.00;;;14.60;99.90;;;;;;5109094;28;20293;-61
2022/10/30 04:41:01;;;;;;;24.43;9.43;;;14.60;99.90;;;;;;5092987;28;20295;-61
2022/10/30 04:43:27;;;;;;;18.47;8.40;;;14.60;99.90;;;;;;5106051;28;20423;-61
2022/10/30 04:45:52;;;;;;;22.90;9.90;;;14.50;99.90;;;;;;5092556;28;20301;-60
2022/10/30 04:48:18;;;;;;;20.48;10.07;;;14.50;99.90;;;;;;5107111;28;20040;-61
2022/10/30 04:50:44;;;;;;;13.18;8.32;;;14.50;99.90;;;;;;5109434;28;20447;-61
2022/10/30 04:53:15;;;;;;;20.13;9.35;;;14.50;99.90;;;;;;5108346;28;20162;-61
2022/10/30 04:55:41;;;;;;;19.02;9.75;;;14.40;99.90;;;;;;5094992;28;20089;-61
2022/10/30 04:58:08;;;;;;;22.20;9.73;;;14.40;99.90;;;;;;5112199;28;20063;-61
2022/10/30 05:00:34;;;;;;;29.17;10.10;;;14.40;99.90;;;;;;5110484;28;20065;-61
2022/10/30 05:03:00;;;;;;;20.92;10.55;;;14.40;99.90;;;;;;5082834;28;20044;-61
2022/10/30 05:05:27;;;;;;;16.38;8.65;;;14.40;99.90;;;;;;5096345;28;20059;-61
2022/10/30 05:07:53;;;;;;;20.50;10.35;;;14.30;99.90;;;;;;5085805;28;20408;-61
2022/10/30 05:10:18;;;;;;;16.95;9.05;;;14.30;99.90;;;;;;5091650;28;20043;-61
2022/10/30 05:12:44;;;;;;;20.00;9.77;;;14.30;99.90;;;;;;5096571;28;20507;-61
2022/10/30 05:15:11;;;;;;;18.52;9.65;;;14.20;99.90;;;;;;5101187;28;20557;-61
2022/10/30 05:17:37;;;;;;;18.48;9.40;;;14.20;99.90;;;;;;5093922;28;20086;-61
2022/10/30 05:20:04;;;;;;;25.77;10.93;;;14.20;99.90;;;;;;5106921;28;20481;-61
2022/10/30 05:22:29;;;;;;;20.80;9.68;;;14.20;99.90;;;;;;5104557;28;20040;-61
2022/10/30 05:24:55;;;;;;;18.45;9.57;;;14.20;99.90;;;;;;5092362;28;20034;-61
2022/10/30 05:27:20;;;;;;;20.37;9.77;;;14.20;99.90;;;;;;5083514;28;20086;-62
2022/10/30 05:29:46;;;;;;;19.53;9.60;;;14.20;99.90;;;;;;5104178;28;20289;-62
2022/10/30 05:32:11;;;;;;;15.97;8.70;;;14.10;99.90;;;;;;5091856;28;20331;-62
2022/10/30 05:34:37;;;;;;;17.63;9.40;;;14.10;99.90;;;;;;5091612;28;20320;-62
2022/10/30 05:37:02;;;;;;;15.20;9.67;;;14.10;99.90;;;;;;5092809;28;20274;-61
2022/10/30 05:39:28;;;;;;;16.25;9.55;;;14.10;99.90;;;;;;5092376;28;20493;-61
2022/10/30 05:41:53;;;;;;;19.88;9.98;;;14.10;99.90;;;;;;5092418;28;20044;-62
2022/10/30 05:44:19;;;;;;;18.52;9.32;;;14.10;99.90;;;;;;5074454;28;20036;-60
2022/10/30 05:46:45;;;;;;;22.08;10.98;;;14.00;99.90;;;;;;5075743;28;20095;-60
2022/10/30 05:49:10;;;;;;;24.30;9.60;;;14.00;99.90;;;;;;5070601;28;20049;-60
2022/10/30 05:51:36;;;;;;;18.10;9.50;;;14.00;99.90;;;;;;5072253;28;20303;-61
2022/10/30 05:54:01;;;;;;;17.90;9.77;;;14.00;99.90;;;;;;5080045;28;20386;-61
2022/10/30 05:56:27;;;;;;;16.42;9.93;;;14.00;99.90;;;;;;5092099;28;20294;-61
2022/10/30 05:58:52;;;;;;;18.35;9.82;;;14.00;99.90;;;;;;5092236;28;20043;-61
2022/10/30 06:01:18;;;;;;;20.57;10.07;;;14.00;99.90;;;;;;5091900;28;20044;-61
2022/10/30 06:03:44;;;;;;;20.88;10.20;;;14.00;99.90;;;;;;5087772;28;20284;-60
2022/10/30 06:06:09;;;;;;;22.17;10.15;;;14.00;99.90;;;;;;5102858;28;20044;-61
2022/10/30 06:08:35;;;;;;;24.92;11.15;;;14.00;99.90;;;;;;5093438;28;20489;-59
2022/10/30 06:11:01;;;;;;;21.05;9.45;;;14.00;99.90;;;;;;5095200;28;20517;-61
2022/10/30 06:13:26;;;;;;;20.63;10.70;;;14.00;99.90;;;;;;5100646;28;20039;-61
2022/10/30 06:15:55;;;;;;;21.13;11.32;;;14.00;99.90;;;;;;5099334;28;20277;-61
2022/10/30 06:18:21;;;;;;;27.00;11.40;;;14.00;99.90;;;;;;5091194;28;20319;-61
2022/10/30 06:20:47;;;;;;;23.77;10.35;;;14.00;99.90;;;;;;5095353;28;20516;-61
2022/10/30 06:23:13;;;;;;;26.87;11.13;;;14.00;99.90;;;;;;5088869;28;20123;-61
2022/10/30 06:25:39;;;;;;;22.65;9.82;;;14.00;99.90;;;;;;5088791;28;20354;-61
2022/10/30 06:28:04;;;;;;;;;;;13.90;99.90;;;;;;5071795;28;20091;-60
2022/10/30 06:30:30;;;;;;;28.25;11.93;;;13.90;99.90;;;;;;5084859;28;19916;-61
2022/10/30 06:33:00;;;;;;;25.45;10.27;;;13.90;99.90;;;;;;5090567;28;20055;-61
2022/10/30 06:35:26;;;;;;;29.42;12.07;;;13.90;99.90;;;;;;5089030;28;20070;-61
2022/10/30 06:37:53;;;;;;;24.77;9.98;;;14.00;99.90;;;;;;5085959;28;20044;-61
2022/10/30 06:40:20;;;;;;;18.60;9.80;;;14.00;99.90;;;;;;5091348;28;20097;-61
2022/10/30 06:42:47;;;;;;;19.50;10.20;;;14.00;99.90;;;;;;5091661;28;20036;-61
2022/10/30 06:45:14;;;;;;;19.85;9.32;;;14.00;99.90;;;;;;5091039;28;20040;-61
2022/10/30 06:47:40;;;;;;;24.38;10.00;;;14.00;99.90;;;;;;5091639;28;20048;-60
2022/10/30 06:50:08;;;;;;;22.48;10.80;;;14.10;99.90;;;;;;5089733;28;20059;-61
2022/10/30 06:52:34;;;;;;;20.77;9.85;;;14.20;99.90;;;;;;5071381;28;20045;-60
2022/10/30 06:55:00;;;;;;;20.98;10.20;;;14.40;99.90;;;;;;5091858;28;20125;-61
2022/10/30 06:57:25;;;;;;;19.63;10.10;;;14.50;99.90;;;;;;5070788;28;20524;-61
2022/10/30 06:59:51;;;;;;;21.45;8.13;;;14.70;99.90;;;;;;5086771;28;20035;-61
2022/10/30 07:02:16;;;;;;;17.48;8.85;;;14.80;99.90;;;;;;5090275;28;20044;-61
2022/10/30 07:04:44;;;;;;;18.35;9.82;;;15.00;99.90;;;;;;5091615;28;20028;-61
2022/10/30 07:07:10;;;;;;;19.48;9.30;;;15.20;99.90;;;;;;5103657;28;20385;-61
2022/10/30 07:09:35;;;;;;;14.85;10.00;;;15.40;99.90;;;;;;5106983;28;20035;-61
2022/10/30 07:12:01;;;;;;;16.27;8.25;;;15.60;99.90;;;;;;5072411;28;20041;-61
2022/10/30 07:14:26;;;;;;;17.55;8.75;;;15.60;99.90;;;;;;5077126;28;20055;-61
2022/10/30 07:16:54;;;;;;;15.30;8.43;;;15.80;99.90;;;;;;5078381;28;20040;-62
2022/10/30 07:19:20;;;;;;;16.75;9.93;;;16.00;99.90;;;;;;5075420;28;20533;-62
2022/10/30 07:21:45;;;;;;;17.63;9.68;;;16.20;99.90;;;;;;5092234;28;20063;-61
2022/10/30 07:24:11;;;;;;;17.05;9.43;;;16.50;99.90;;;;;;5110026;28;20039;-62
2022/10/30 07:26:37;;;;;;;22.55;9.95;;;16.80;99.90;;;;;;5085253;28;20493;-62
2022/10/30 07:29:03;;;;;;;27.90;10.13;;;17.10;99.90;;;;;;5068650;28;20069;-62
2022/10/30 07:31:29;;;;;;;23.75;9.48;;;17.40;99.90;;;;;;5075568;28;20080;-61
2022/10/30 07:33:54;;;;;;;25.05;10.20;;;17.80;99.90;;;;;;5069855;28;20082;-60
2022/10/30 07:36:20;;;;;;;16.20;8.80;;;18.00;99.90;;;;;;5087270;28;20039;-60
2022/10/30 07:38:49;;;;;;;18.00;9.50;;;18.10;99.90;;;;;;5090315;28;20415;-61
2022/10/30 07:41:17;;;;;;;24.02;10.05;;;18.00;99.90;;;;;;5091049;28;20040;-61
2022/10/30 07:43:43;;;;;;;25.58;10.65;;;17.80;99.90;;;;;;5072056;28;20040;-62
2022/10/30 07:46:09;;;;;;;;;;;17.50;99.90;;;;;;5079083;28;20039;-55
2022/10/30 07:48:34;;;;;;;27.27;10.88;;;17.20;99.90;;;;;;5069700;28;19916;-55
2022/10/30 07:51:00;;;;;;;20.55;10.80;;;16.90;99.90;;;;;;5079281;28;20036;-53
2022/10/30 07:53:26;;;;;;;22.65;12.05;;;16.80;99.90;;;;;;5089090;28;20044;-54
2022/10/30 07:55:51;;;;;;;16.08;10.52;;;16.60;99.90;;;;;;5091199;28;20501;-54
2022/10/30 07:58:17;;;;;;;28.27;11.35;;;16.60;99.90;;;;;;5089644;28;20098;-56
2022/10/30 08:00:42;;;;;;;21.13;11.20;;;16.60;99.90;;;;;;5091252;28;20048;-55
2022/10/30 08:03:09;;;;;;;22.70;11.93;;;16.60;99.90;;;;;;5083830;28;20081;-56
2022/10/30 08:05:35;;;;;;;20.30;11.77;;;16.70;99.90;;;;;;5072382;28;20043;-55
2022/10/30 08:08:03;;;;;;;23.02;11.43;;;16.70;99.90;;;;;;5088269;28;20031;-56
2022/10/30 08:10:29;;;;;;;21.13;10.88;;;16.80;99.90;;;;;;5090094;28;20051;-55
2022/10/30 08:12:55;;;;;;;21.60;10.95;;;16.90;99.90;;;;;;5087290;28;20047;-55
2022/10/30 08:15:21;;;;;;;23.35;11.07;;;17.10;99.90;;;;;;5069765;28;20434;-56
2022/10/30 08:17:48;;;;;;;20.40;11.23;;;17.20;99.90;;;;;;5070122;28;20051;-56
2022/10/30 08:20:16;;;;;;;21.85;11.25;;;17.30;99.90;;;;;;5069792;28;20124;-54
2022/10/30 08:22:53;;;;;;;25.05;10.63;;;17.50;99.90;;;;;;5069790;28;20531;-53
2022/10/30 08:25:19;;;;;;;;;;;17.60;99.90;;;;;;5081600;28;20047;-52
2022/10/30 08:27:54;;;;;;;19.65;11.40;;;17.80;99.90;;;;;;5069681;28;19934;-54
2022/10/30 08:30:20;;;;;;;20.17;11.10;;;17.90;99.90;;;;;;5069683;28;20497;-54
2022/10/30 08:32:46;;;;;;;20.08;11.45;;;18.00;99.90;;;;;;5070074;28;20047;-52
2022/10/30 08:35:12;;;;;;;20.83;11.48;;;18.00;99.90;;;;;;5079963;28;20048;-55
2022/10/30 08:37:37;;;;;;;25.00;11.18;;;18.00;99.90;;;;;;5090024;28;20036;-52
2022/10/30 08:40:03;;;;;;;23.45;12.10;;;18.00;99.90;;;;;;5098215;28;20407;-54
2022/10/30 08:42:29;;;;;;;23.60;10.90;;;18.10;99.90;;;;;;5091917;28;20063;-52
2022/10/30 08:44:54;;;;;;;22.30;11.15;;;18.20;99.90;;;;;;5076267;28;20090;-55
2022/10/30 08:47:20;;;;;;;22.00;11.95;;;18.30;99.90;;;;;;5079743;28;20395;-55
2022/10/30 08:49:45;;;;;;;19.08;10.77;;;18.30;99.90;;;;;;5069837;28;20227;-57
2022/10/30 08:52:11;;;;;;;20.55;11.55;;;18.30;99.90;;;;;;5090521;28;20039;-55
2022/10/30 08:54:36;;;;;;;21.23;11.77;;;18.40;99.90;;;;;;5088404;28;20519;-58
2022/10/30 08:57:02;;;;;;;22.42;12.25;;;18.50;99.90;;;;;;5089442;28;20441;-56
2022/10/30 08:59:28;;;;;;;26.90;11.85;;;18.50;99.90;;;;;;5099801;28;20031;-54
2022/10/30 09:01:53;;;;;;;18.63;11.73;;;18.40;99.90;;;;;;5092055;28;20036;-53
2022/10/30 09:04:19;;;;;;;27.58;11.80;;;18.40;99.90;;;;;;5100338;28;20411;-53
2022/10/30 09:06:44;;;;;;;23.58;10.27;;;18.40;99.90;;;;;;5091915;28;20562;-56
2022/10/30 09:09:10;;;;;;;21.85;12.00;;;18.40;99.90;;;;;;5091823;28;20043;-59
2022/10/30 09:11:36;;;;;;;;;;;18.40;99.90;;;;;;5091925;28;20046;-52
2022/10/30 09:14:01;;;;;;;23.90;11.63;;;18.50;99.90;;;;;;5081287;28;19916;-55
2022/10/30 09:16:27;;;;;;;22.90;11.70;;;18.40;99.90;;;;;;5072525;28;20036;-52
2022/10/30 09:18:52;;;;;;;25.60;11.95;;;18.50;99.90;;;;;;5072810;28;20040;-53
2022/10/30 09:21:18;;;;;;;19.50;11.95;;;18.50;99.90;;;;;;5072578;28;20127;-51
2022/10/30 09:23:43;;;;;;;28.55;11.93;;;18.50;99.90;;;;;;5072811;28;20028;-52
2022/10/30 09:26:10;;;;;;;18.92;12.27;;;18.50;99.90;;;;;;5072938;28;20159;-53
2022/10/30 09:28:35;;;;;;;18.38;11.43;;;18.50;99.90;;;;;;5100103;28;20503;-54
2022/10/30 09:31:02;;;;;;;28.48;13.00;;;18.50;99.90;;;;;;5095594;28;20040;-57
2022/10/30 09:33:28;;;;;;;21.08;12.82;;;18.60;99.90;;;;;;5084999;28;20507;-69
2022/10/30 09:35:53;;;;;;;27.10;12.85;;;18.60;99.90;;;;;;5074906;28;20117;-53
2022/10/30 09:38:19;;;;;;;25.75;12.45;;;18.70;99.90;;;;;;5072034;28;20123;-56
2022/10/30 09:41:04;;;;;;;21.95;12.25;;;18.70;99.90;;;;;;5072280;28;20489;-55
2022/10/30 09:43:54;;;;;;;19.95;12.30;;;18.80;99.90;;;;;;5071049;28;20171;-56
2022/10/30 09:46:37;;;;;;;24.75;12.15;;;18.90;99.90;;;;;;5081811;28;20036;-57
2022/10/30 09:49:06;;;;;;;22.40;11.77;;;19.10;99.90;;;;;;5072347;28;20046;-53
2022/10/30 09:52:07;;;;;;;21.75;12.05;;;19.20;99.90;;;;;;5071910;28;20051;-53
2022/10/30 09:54:44;;;;;;;23.75;12.05;;;19.30;99.90;;;;;;5073193;28;20048;-56
2022/10/30 09:57:18;;;;;;;18.83;12.07;;;19.40;99.90;;;;;;5071462;28;20102;-56
2022/10/30 09:59:58;;;;;;;24.00;11.90;;;19.40;99.90;;;;;;5072193;28;20044;-56
2022/10/30 10:02:58;;;;;;;23.42;13.13;;;19.50;99.90;;;;;;5071948;28;20036;-56
2022/10/30 10:05:47;;;;;;;30.50;12.60;;;19.60;99.90;;;;;;5059458;28;20094;-55
2022/10/30 10:08:18;;;;;;;23.40;11.88;;;19.70;99.90;;;;;;5071696;28;20032;-58
2022/10/30 10:10:50;;;;;;;21.15;11.70;;;19.70;99.90;;;;;;5071731;28;20354;-55
2022/10/30 10:13:47;;;;;;;26.92;13.35;;;19.70;99.90;;;;;;5087955;28;20443;-58
2022/10/30 10:16:21;;;;;;;21.35;12.65;;;19.90;99.90;;;;;;5091904;28;20046;-53
2022/10/30 10:18:54;;;;;;;22.02;12.60;;;19.90;99.90;;;;;;5091624;28;20057;-56
2022/10/30 10:21:25;;;;;;;25.52;13.45;;;20.00;99.90;;;;;;5071805;28;20389;-57
2022/10/30 10:23:54;;;;;;;27.52;13.00;;;20.10;99.90;;;;;;5089011;28;20395;-57
2022/10/30 10:26:26;;;;;;;25.15;12.52;;;20.20;99.90;;;;;;5079313;28;20058;-57
2022/10/30 10:29:13;;;;;;;22.05;12.55;;;20.30;99.90;;;;;;5070104;28;20045;-57
2022/10/30 10:32:05;;;;;;;21.67;12.65;;;20.40;99.90;;;;;;5093725;28;20071;-57
2022/10/30 10:35:04;;;;;;;25.15;12.95;;;20.50;99.90;;;;;;5081814;28;20046;-56
2022/10/30 10:37:50;;;;;;;17.63;10.57;;;20.60;99.90;;;;;;5075143;28;20040;-57
2022/10/30 10:40:53;;;;;;;23.27;12.80;;;20.80;99.90;;;;;;5093553;28;20056;-57
2022/10/30 10:43:41;;;;;;;28.23;11.50;;;20.90;99.90;;;;;;5072732;28;20041;-54
2022/10/30 10:46:21;;;;;;;25.55;13.95;;;21.00;99.90;;;;;;5086830;28;20047;-58
2022/10/30 10:49:18;;;;;;;22.30;12.40;;;21.00;99.90;;;;;;5071090;28;20442;-56
2022/10/30 10:52:00;;;;;;;17.50;11.45;;;21.10;99.90;;;;;;5070627;28;20490;-58
2022/10/30 10:54:34;;;;;;;19.40;11.63;;;21.10;99.90;;;;;;5070560;28;20055;-58
2022/10/30 10:57:03;;;;;;;20.30;12.02;;;21.20;99.90;;;;;;5076519;28;20040;-58
2022/10/30 10:59:37;;;;;;;27.67;11.75;;;21.10;99.90;;;;;;5090751;28;20051;-56
2022/10/30 11:02:24;;;;;;;20.50;12.38;;;21.10;99.90;;;;;;5090784;28;20047;-54
2022/10/30 11:04:53;;;;;;;24.98;12.38;;;21.00;99.90;;;;;;5090660;28;20222;-56
2022/10/30 11:07:22;;;;;;;21.63;11.23;;;21.00;99.90;;;;;;5088910;28;20032;-55
2022/10/30 11:09:52;;;;;;;28.85;13.48;;;21.00;99.90;;;;;;5090683;28;20127;-56
2022/10/30 11:12:25;;;;;;;23.27;11.70;;;21.10;99.90;;;;;;5090173;28;20520;-53
2022/10/30 11:14:51;;;;;;;19.73;12.45;;;21.20;99.90;;;;;;5090530;28;20522;-56
2022/10/30 11:17:23;;;;;;;;;;;21.30;99.90;;;;;;5090757;28;20036;-53
2022/10/30 11:19:51;;;;;;;20.35;12.35;;;21.40;99.90;;;;;;5088948;28;19916;-55
2022/10/30 11:22:23;;;;;;;23.38;12.05;;;21.40;99.90;;;;;;5089054;28;20454;-57
2022/10/30 11:24:48;;;;;;;24.75;12.93;;;21.40;99.90;;;;;;5089862;28;20036;-55
2022/10/30 11:27:23;;;;;;;;;;;21.50;99.90;;;;;;5091052;28;20127;-54
2022/10/30 11:29:52;;;;;;;26.25;12.38;;;21.50;99.90;;;;;;5076341;28;19917;-58
2022/10/30 11:32:25;;;;;;;21.27;12.15;;;21.50;99.90;;;;;;5074740;28;20431;-53
2022/10/30 11:35:12;;;;;;;23.38;12.13;;;21.50;99.90;;;;;;5093251;28;20078;-54
2022/10/30 11:37:40;;;;;;;20.88;13.35;;;21.60;99.90;;;;;;5104335;28;20035;-56
2022/10/30 11:40:15;;;;;;;29.70;12.68;;;21.60;99.90;;;;;;5094025;28;20036;-56
2022/10/30 11:43:00;;;;;;;24.40;12.50;;;21.60;99.90;;;;;;5089993;28;20421;-56
2022/10/30 11:45:29;;;;;;;33.15;12.25;;;21.40;99.90;;;;;;5086134;28;20047;-56
2022/10/30 11:47:57;;;;;;;25.20;12.15;;;21.40;99.90;;;;;;5090516;28;20036;-55
2022/10/30 11:50:26;;;;;;;21.75;12.10;;;21.40;99.90;;;;;;5078190;28;20044;-55
2022/10/30 11:52:55;;;;;;;24.10;12.25;;;21.40;99.90;;;;;;5093794;28;20040;-57
2022/10/30 11:55:32;;;;;;;21.45;11.80;;;21.40;99.90;;;;;;5080893;28;20040;-54
2022/10/30 11:57:58;;;;;;;22.35;11.45;;;21.40;99.90;;;;;;5079193;28;20044;-55
2022/10/30 12:00:25;;;;;;;;;;;21.40;99.90;;;;;;5090603;28;20036;-54
2022/10/30 12:02:52;;;;;;;;;;;21.40;99.90;;;;;;5082306;28;19955;-54
2022/10/30 12:05:31;;;;;;;32.97;13.07;;;21.50;99.90;;;;;;5073533;28;19920;-54
2022/10/30 12:08:06;;;;;;;28.42;12.75;;;21.60;99.90;;;;;;5090488;28;20040;-52
2022/10/30 12:10:51;;;;;;;21.75;11.57;;;21.70;99.90;;;;;;5089989;28;20433;-54
2022/10/30 12:13:19;;;;;;;30.27;11.43;;;21.80;99.90;;;;;;5089519;28;20626;-56
2022/10/30 12:15:48;;;;;;;33.45;12.32;;;21.90;99.90;;;;;;5086237;28;20490;-54
2022/10/30 12:18:20;;;;;;;21.85;11.52;;;21.90;99.90;;;;;;5069794;28;20391;-56
2022/10/30 12:20:50;;;;;;;22.00;11.15;;;21.90;99.90;;;;;;5069618;28;20037;-55
2022/10/30 12:23:19;;;;;;;15.68;10.50;;;21.90;99.90;;;;;;5096613;28;20036;-53
2022/10/30 12:25:50;;;;;;;23.40;10.75;;;22.00;99.90;;;;;;5095891;28;20381;-56
2022/10/30 12:28:38;;;;;;;28.02;11.32;;;22.00;99.90;;;;;;5086688;28;20044;-56
2022/10/30 12:31:16;;;;;;;23.17;11.43;;;22.00;99.90;;;;;;5089337;28;20048;-56
2022/10/30 12:33:49;;;;;;;17.50;10.50;;;22.00;99.90;;;;;;5093058;28;20054;-57
2022/10/30 12:36:19;;;;;;;18.50;10.85;;;21.90;99.90;;;;;;5101134;28;20484;-56
2022/10/30 12:39:07;;;;;;;23.75;12.20;;;21.80;99.90;;;;;;5098886;28;20068;-57
2022/10/30 12:41:41;;;;;;;23.42;11.10;;;21.70;99.90;;;;;;5097412;28;20035;-57
2022/10/30 12:44:13;;;;;;;24.88;11.90;;;21.50;99.90;;;;;;5102777;28;20039;-56
2022/10/30 12:47:06;;;;;;;22.58;12.30;;;21.40;99.90;;;;;;5102168;28;20077;-55